Time;durP1;ratioP1;P1;durP2;ratioP2;P2;SDS_P1;SDS_P2;PMS_P1;PMS_P2;Temp;Humidity;BMP_temperature;BMP_pressure;BME280_temperature;BME280_humidity;BME280_pressure;Samples;Min_cycle;Max_cycle;Signal;HPM_P1;HPM_P2
2022/04/20 00:00:09;;;;;;;2.87;1.70;;;3.40;92.30;;;;;;4195640;28;20259;-68
2022/04/20 00:02:10;;;;;;;1.83;1.50;;;3.40;92.40;;;;;;4195730;28;20414;-68
2022/04/20 00:04:11;;;;;;;2.80;1.73;;;3.40;92.30;;;;;;4194480;28;20422;-68
2022/04/20 00:06:12;;;;;;;2.63;1.80;;;3.40;92.10;;;;;;4193714;28;20714;-68
2022/04/20 00:08:13;;;;;;;1.90;1.60;;;3.30;92.20;;;;;;4195509;28;20475;-68
2022/04/20 00:10:13;;;;;;;2.80;1.80;;;3.30;92.40;;;;;;4195582;28;20199;-68
2022/04/20 00:12:14;;;;;;;2.47;1.90;;;3.30;92.30;;;;;;4195490;28;20180;-68
2022/04/20 00:14:15;;;;;;;3.40;1.80;;;3.30;92.20;;;;;;4195449;28;20195;-68
2022/04/20 00:16:15;;;;;;;4.23;2.23;;;3.30;92.20;;;;;;4194947;28;20266;-68
2022/04/20 00:18:16;;;;;;;2.90;1.93;;;3.20;92.80;;;;;;4196226;28;20191;-68
2022/04/20 00:20:18;;;;;;;2.47;1.77;;;3.20;92.40;;;;;;4194347;28;20237;-68
2022/04/20 00:22:18;;;;;;;2.50;1.93;;;3.20;92.70;;;;;;4194160;28;20180;-68
2022/04/20 00:24:19;;;;;;;2.90;1.83;;;3.20;92.80;;;;;;4195430;28;20483;-68
2022/04/20 00:26:20;;;;;;;1.97;1.60;;;3.20;92.80;;;;;;4195010;28;20305;-68
2022/04/20 00:28:20;;;;;;;2.07;1.60;;;3.10;93.00;;;;;;4195505;28;20558;-68
2022/04/20 00:30:21;;;;;;;2.27;1.80;;;3.10;92.90;;;;;;4194381;28;20632;-68
2022/04/20 00:32:22;;;;;;;2.43;1.63;;;3.10;92.90;;;;;;4195581;28;20188;-68
2022/04/20 00:34:22;;;;;;;2.93;2.00;;;3.10;93.10;;;;;;4195777;28;20202;-68
2022/04/20 00:36:23;;;;;;;3.10;2.07;;;3.00;92.90;;;;;;4195169;28;20240;-68
2022/04/20 00:38:24;;;;;;;2.27;1.60;;;2.90;93.30;;;;;;4195919;28;20204;-69
2022/04/20 00:40:25;;;;;;;5.57;2.73;;;3.00;93.20;;;;;;4194578;28;20721;-69
2022/04/20 00:42:27;;;;;;;2.47;1.70;;;3.00;93.30;;;;;;4195794;28;20662;-68
2022/04/20 00:44:29;;;;;;;2.17;1.87;;;3.00;93.40;;;;;;4195630;28;20187;-68
2022/04/20 00:46:31;;;;;;;2.40;1.63;;;3.00;93.40;;;;;;4195312;28;20444;-70
2022/04/20 00:48:35;;;;;;;2.20;1.60;;;2.90;93.10;;;;;;4194586;28;20442;-68
2022/04/20 00:50:38;;;;;;;2.13;1.93;;;2.90;93.00;;;;;;4195788;28;20426;-68
2022/04/20 00:52:40;;;;;;;2.20;1.87;;;2.90;93.30;;;;;;4195796;28;20493;-68
2022/04/20 00:54:40;;;;;;;3.37;2.17;;;2.80;93.50;;;;;;4192189;28;20548;-68
2022/04/20 00:56:41;;;;;;;3.23;2.20;;;2.80;93.50;;;;;;4178405;28;20937;-68
2022/04/20 00:58:43;;;;;;;2.70;1.90;;;2.80;93.50;;;;;;4179248;28;20588;-68
2022/04/20 01:00:43;;;;;;;3.03;1.90;;;2.80;93.50;;;;;;4177787;28;20633;-68
2022/04/20 01:02:44;;;;;;;4.57;2.03;;;2.70;93.70;;;;;;4177849;28;20434;-68
2022/04/20 01:04:45;;;;;;;3.33;2.00;;;2.70;94.60;;;;;;4178954;28;20208;-68
2022/04/20 01:06:46;;;;;;;1.67;1.57;;;2.70;94.10;;;;;;4178137;28;20219;-68
2022/04/20 01:08:47;;;;;;;2.77;1.83;;;2.70;94.00;;;;;;4178464;28;20581;-68
2022/04/20 01:10:47;;;;;;;8.10;2.17;;;2.70;94.10;;;;;;4178780;28;20426;-68
2022/04/20 01:12:48;;;;;;;2.77;2.03;;;2.70;94.10;;;;;;4178432;28;20710;-68
2022/04/20 01:14:49;;;;;;;2.80;2.10;;;2.60;94.00;;;;;;4177580;28;20574;-68
2022/04/20 01:16:49;;;;;;;2.40;1.90;;;2.60;94.20;;;;;;4176788;28;20192;-68
2022/04/20 01:18:51;;;;;;;3.70;1.80;;;2.60;94.10;;;;;;4178926;28;20189;-68
2022/04/20 01:20:51;;;;;;;2.67;1.80;;;2.50;94.10;;;;;;4178526;28;20172;-68
2022/04/20 01:22:52;;;;;;;2.33;1.77;;;2.50;94.30;;;;;;4178520;28;20423;-68
2022/04/20 01:24:53;;;;;;;2.67;2.10;;;2.50;94.10;;;;;;4178312;28;20472;-72
2022/04/20 01:26:53;;;;;;;2.57;1.87;;;2.50;94.70;;;;;;4177907;28;20184;-68
2022/04/20 01:28:55;;;;;;;3.17;2.10;;;2.50;94.30;;;;;;4177208;28;20673;-68
2022/04/20 01:30:56;;;;;;;2.23;2.00;;;2.50;94.30;;;;;;4180520;28;20216;-68
2022/04/20 01:32:57;;;;;;;3.07;2.00;;;2.50;94.30;;;;;;4181483;28;20488;-68
2022/04/20 01:34:58;;;;;;;2.63;2.00;;;2.50;94.40;;;;;;4179822;28;20200;-68
2022/04/20 01:36:58;;;;;;;3.63;2.00;;;2.40;94.40;;;;;;4180746;28;21010;-68
2022/04/20 01:38:59;;;;;;;3.17;1.80;;;2.40;94.70;;;;;;4181133;28;20218;-68
2022/04/20 01:40:59;;;;;;;2.90;2.10;;;2.30;94.60;;;;;;4181313;28;20215;-68
2022/04/20 01:43:00;;;;;;;3.50;2.20;;;2.40;95.00;;;;;;4181398;28;20177;-68
2022/04/20 01:45:01;;;;;;;3.83;1.80;;;2.40;94.80;;;;;;4181164;28;20730;-68
2022/04/20 01:47:02;;;;;;;2.77;1.83;;;2.40;94.60;;;;;;4179545;28;20187;-68
2022/04/20 01:49:03;;;;;;;2.03;1.83;;;2.40;94.30;;;;;;4179991;28;20251;-68
2022/04/20 01:53:24;;;;;;;3.17;1.93;;;2.40;94.20;;;;;;4181097;28;20425;-68
2022/04/20 01:55:24;;;;;;;3.07;2.00;;;2.40;94.60;;;;;;4185878;28;20493;-68
2022/04/20 01:57:25;;;;;;;3.70;2.57;;;2.40;94.40;;;;;;4197713;28;20203;-68
2022/04/20 01:59:26;;;;;;;2.70;1.83;;;2.50;94.20;;;;;;4197691;28;20258;-68
2022/04/20 02:03:46;;;;;;;3.23;2.40;;;2.20;94.70;;;;;;4197245;28;20221;-68
2022/04/20 02:05:46;;;;;;;2.10;1.60;;;2.10;95.10;;;;;;4196476;28;20426;-68
2022/04/20 02:07:47;;;;;;;2.83;1.63;;;2.10;95.20;;;;;;4196932;28;20203;-68
2022/04/20 02:09:48;;;;;;;1.90;1.70;;;2.10;95.30;;;;;;4196965;28;20207;-68
2022/04/20 02:11:48;;;;;;;5.13;2.23;;;2.10;95.50;;;;;;4197096;28;20188;-68
2022/04/20 02:13:49;;;;;;;1.90;1.70;;;2.00;95.50;;;;;;4197110;28;20172;-68
2022/04/20 02:15:50;;;;;;;3.17;1.80;;;2.10;95.40;;;;;;4196663;28;20176;-68
2022/04/20 02:17:50;;;;;;;4.97;1.93;;;2.20;95.50;;;;;;4197784;28;20207;-68
2022/04/20 02:19:51;;;;;;;3.37;2.13;;;2.20;95.20;;;;;;4196137;28;20202;-68
2022/04/20 02:21:52;;;;;;;2.07;1.73;;;2.30;95.20;;;;;;4212686;28;20286;-68
2022/04/20 02:23:52;;;;;;;2.83;1.60;;;2.30;94.90;;;;;;4196137;28;20441;-68
2022/04/20 02:25:54;;;;;;;2.23;1.93;;;2.30;94.60;;;;;;4196516;28;20812;-68
2022/04/20 02:27:56;;;;;;;3.43;1.90;;;2.30;94.20;;;;;;4197235;28;20207;-68
2022/04/20 02:29:57;;;;;;;2.63;1.77;;;2.30;94.30;;;;;;4195737;28;20425;-68
2022/04/20 02:31:57;;;;;;;2.70;1.97;;;2.20;94.50;;;;;;4197059;28;20425;-68
2022/04/20 02:33:58;;;;;;;2.67;1.53;;;2.20;94.40;;;;;;4197296;28;20207;-68
2022/04/20 02:35:59;;;;;;;1.87;1.67;;;2.30;94.50;;;;;;4196506;28;20219;-68
2022/04/20 02:38:00;;;;;;;2.43;1.60;;;2.30;94.50;;;;;;4197128;28;20211;-69
2022/04/20 02:40:01;;;;;;;2.83;2.07;;;2.20;94.50;;;;;;4197208;28;20961;-68
2022/04/20 02:42:03;;;;;;;2.67;2.27;;;2.20;94.60;;;;;;4197109;28;20184;-68
2022/04/20 02:44:04;;;;;;;2.90;1.87;;;2.20;94.70;;;;;;4197348;28;20341;-69
2022/04/20 02:46:06;;;;;;;2.87;2.10;;;2.20;94.70;;;;;;4196964;28;20425;-69
2022/04/20 02:48:07;;;;;;;2.30;2.00;;;2.20;94.80;;;;;;4197062;28;20569;-69
2022/04/20 02:50:08;;;;;;;4.33;2.23;;;2.20;94.90;;;;;;4196075;28;20430;-69
2022/04/20 02:52:08;;;;;;;3.93;2.67;;;2.20;94.90;;;;;;4197017;28;20233;-68
2022/04/20 02:54:09;;;;;;;2.97;2.10;;;2.30;94.70;;;;;;4196866;28;20207;-69
2022/04/20 02:56:10;;;;;;;2.73;2.30;;;2.30;94.30;;;;;;4190958;28;20638;-69
2022/04/20 02:58:11;;;;;;;2.23;1.93;;;2.30;94.30;;;;;;4188885;28;20208;-69
2022/04/20 03:00:12;;;;;;;2.03;1.80;;;2.20;94.50;;;;;;4181080;28;20647;-69
2022/04/20 03:02:13;;;;;;;3.07;1.90;;;2.10;94.50;;;;;;4180259;28;21202;-68
2022/04/20 03:04:14;;;;;;;3.77;2.13;;;2.20;94.70;;;;;;4180164;28;20522;-68
2022/04/20 03:06:15;;;;;;;2.27;1.90;;;2.30;94.60;;;;;;4179995;28;20184;-68
2022/04/20 03:08:15;;;;;;;3.07;2.03;;;2.30;94.60;;;;;;4180356;28;20249;-68
2022/04/20 03:10:17;;;;;;;3.07;1.90;;;2.30;94.20;;;;;;4180475;28;20898;-68
2022/04/20 03:12:17;;;;;;;2.87;1.83;;;2.10;94.60;;;;;;4180409;28;20215;-69
2022/04/20 03:14:18;;;;;;;2.37;2.17;;;2.10;94.70;;;;;;4195908;28;20467;-69
2022/04/20 03:16:19;;;;;;;2.73;2.03;;;1.90;95.70;;;;;;4194505;28;20207;-69
2022/04/20 03:18:20;;;;;;;2.67;2.37;;;2.00;95.80;;;;;;4179384;28;20215;-69
2022/04/20 03:20:20;;;;;;;4.37;2.67;;;2.00;95.60;;;;;;4179197;28;20781;-69
2022/04/20 03:22:21;;;;;;;3.70;2.30;;;2.10;95.60;;;;;;4177705;28;20658;-69
2022/04/20 03:24:22;;;;;;;4.03;2.30;;;2.10;95.40;;;;;;4178843;28;20802;-68
2022/04/20 03:26:23;;;;;;;3.17;2.33;;;2.20;95.20;;;;;;4178431;28;20195;-68
2022/04/20 03:28:24;;;;;;;2.70;2.10;;;2.20;94.90;;;;;;4179189;28;20458;-69
2022/04/20 03:30:25;;;;;;;2.90;2.07;;;2.10;94.80;;;;;;4179132;28;20185;-69
2022/04/20 03:32:26;;;;;;;3.03;1.90;;;2.10;95.10;;;;;;4179125;28;20189;-68
2022/04/20 03:34:28;;;;;;;3.13;2.23;;;2.10;94.90;;;;;;4177725;28;20216;-69
2022/04/20 03:36:30;;;;;;;2.63;2.10;;;2.00;95.20;;;;;;4178532;28;20459;-68
2022/04/20 03:38:31;;;;;;;3.33;2.33;;;2.00;95.40;;;;;;4178415;28;20450;-69
2022/04/20 03:40:32;;;;;;;4.60;2.60;;;1.90;95.20;;;;;;4179473;28;20419;-69
2022/04/20 03:42:32;;;;;;;4.07;2.80;;;1.90;95.40;;;;;;4178426;28;20184;-69
2022/04/20 03:44:33;;;;;;;4.00;2.20;;;1.80;95.60;;;;;;4178306;28;20192;-69
2022/04/20 03:46:35;;;;;;;3.03;2.30;;;1.80;95.60;;;;;;4193783;28;20536;-69
2022/04/20 03:48:35;;;;;;;2.63;1.77;;;1.90;95.70;;;;;;4178161;28;20454;-69
2022/04/20 03:50:36;;;;;;;3.37;2.20;;;1.90;95.30;;;;;;4195882;28;20473;-69
2022/04/20 03:52:38;;;;;;;3.60;2.20;;;1.90;95.40;;;;;;4195302;28;20192;-69
2022/04/20 03:54:39;;;;;;;2.83;2.33;;;1.80;95.50;;;;;;4195642;28;20203;-69
2022/04/20 03:58:59;;;;;;;4.63;2.30;;;1.80;95.90;;;;;;4198305;28;20179;-69
2022/04/20 04:01:01;;;;;;;3.07;2.77;;;1.70;96.00;;;;;;4198692;28;20429;-69
2022/04/20 04:03:01;;;;;;;4.47;2.40;;;1.80;96.30;;;;;;4198623;28;20258;-69
2022/04/20 04:05:02;;;;;;;3.87;2.57;;;1.80;96.40;;;;;;4198038;28;20507;-70
2022/04/20 04:07:03;;;;;;;3.30;2.47;;;1.90;96.30;;;;;;4198296;28;20846;-69
2022/04/20 04:09:04;;;;;;;3.30;2.40;;;1.80;96.00;;;;;;4198291;28;20192;-69
2022/04/20 04:11:04;;;;;;;3.13;2.20;;;1.80;96.00;;;;;;4197568;28;20191;-69
2022/04/20 04:13:05;;;;;;;3.13;2.47;;;1.90;95.60;;;;;;4198504;28;20199;-69
2022/04/20 04:15:07;;;;;;;3.13;2.50;;;1.80;95.70;;;;;;4197178;28;20233;-69
2022/04/20 04:17:08;;;;;;;10.80;3.73;;;1.80;95.70;;;;;;4196330;28;20518;-69
2022/04/20 04:19:09;;;;;;;3.37;2.50;;;1.70;95.90;;;;;;4198295;28;20469;-68
2022/04/20 04:21:10;;;;;;;2.83;2.50;;;1.60;96.30;;;;;;4197811;28;20407;-69
2022/04/20 04:23:11;;;;;;;3.03;2.30;;;1.60;96.40;;;;;;4196609;28;20432;-69
2022/04/20 04:25:11;;;;;;;3.20;2.27;;;1.60;96.80;;;;;;4198399;28;20179;-69
2022/04/20 04:27:12;;;;;;;3.30;2.10;;;1.50;96.90;;;;;;4197856;28;20222;-69
2022/04/20 04:29:13;;;;;;;2.97;2.37;;;1.60;97.20;;;;;;4198235;28;20207;-69
2022/04/20 04:31:13;;;;;;;5.77;2.57;;;1.70;97.10;;;;;;4197952;28;20287;-69
2022/04/20 04:33:14;;;;;;;4.03;2.63;;;1.80;96.80;;;;;;4197832;28;20179;-69
2022/04/20 04:35:17;;;;;;;3.93;2.70;;;1.70;96.40;;;;;;4197486;28;20270;-68
2022/04/20 04:37:18;;;;;;;3.63;2.90;;;1.80;96.40;;;;;;4196656;28;20211;-69
2022/04/20 04:39:21;;;;;;;4.30;2.73;;;1.80;96.00;;;;;;4195103;28;20441;-69
2022/04/20 04:41:21;;;;;;;5.47;2.80;;;1.70;96.20;;;;;;4193431;28;20280;-69
2022/04/20 04:43:22;;;;;;;4.73;2.90;;;1.70;96.30;;;;;;4194892;28;20538;-69
2022/04/20 04:50:03;;;;;;;3.30;2.33;;;1.80;96.20;;;;;;4193801;28;20523;-69
2022/04/20 04:52:06;;;;;;;2.87;2.40;;;1.80;96.10;;;;;;4193701;28;20787;-69
2022/04/20 04:54:07;;;;;;;4.07;2.60;;;1.80;96.20;;;;;;4193767;28;20465;-69
2022/04/20 04:56:07;;;;;;;3.27;2.40;;;1.80;96.10;;;;;;4194808;28;20922;-69
2022/04/20 04:58:08;;;;;;;3.93;2.93;;;1.80;96.10;;;;;;4195140;28;20557;-70
2022/04/20 05:00:09;;;;;;;4.83;2.30;;;1.90;95.90;;;;;;4195077;28;20183;-70
2022/04/20 05:02:10;;;;;;;3.50;2.87;;;2.00;95.90;;;;;;4194564;28;20183;-69
2022/04/20 05:04:11;;;;;;;5.37;2.77;;;2.00;95.80;;;;;;4193290;28;20428;-69
2022/04/20 05:06:12;;;;;;;5.53;2.90;;;2.10;95.50;;;;;;4183670;28;20434;-70
2022/04/20 05:08:13;;;;;;;5.67;3.30;;;2.00;95.10;;;;;;4180853;28;20236;-70
2022/04/20 05:10:14;;;;;;;4.53;3.30;;;2.00;95.60;;;;;;4194110;28;20203;-69
2022/04/20 05:12:14;;;;;;;4.13;3.30;;;2.10;95.60;;;;;;4197453;28;20962;-70
2022/04/20 05:14:16;;;;;;;5.77;2.50;;;2.10;95.50;;;;;;4196254;28;20235;-70
2022/04/20 05:16:16;;;;;;;4.50;2.93;;;2.20;95.40;;;;;;4197028;28;20228;-70
2022/04/20 05:18:17;;;;;;;4.27;2.50;;;2.20;95.10;;;;;;4197612;28;20450;-70
2022/04/20 05:20:21;;;;;;;4.73;2.90;;;2.40;94.80;;;;;;4197475;28;20202;-69
2022/04/20 05:22:21;;;;;;;4.37;2.87;;;2.40;94.70;;;;;;4197410;28;20552;-70
2022/04/20 05:24:22;;;;;;;6.53;3.37;;;2.40;94.50;;;;;;4197498;28;20429;-70
2022/04/20 05:26:23;;;;;;;5.20;3.00;;;2.50;94.50;;;;;;4196905;28;20222;-69
2022/04/20 05:28:23;;;;;;;4.10;2.73;;;2.50;94.20;;;;;;4196057;28;20195;-70
2022/04/20 05:30:24;;;;;;;5.77;3.43;;;2.60;94.20;;;;;;4197368;28;20569;-70
2022/04/20 05:32:25;;;;;;;4.80;3.20;;;2.70;93.80;;;;;;4197396;28;20184;-70
2022/04/20 05:34:28;;;;;;;3.60;3.10;;;2.60;93.90;;;;;;4197269;28;20207;-70
2022/04/20 05:41:39;;;;;;;5.57;3.20;;;2.70;93.70;;;;;;4196502;28;20414;-70
2022/04/20 05:43:28;;;;;;;3.33;2.87;;;3.00;92.70;;;;;;4197038;28;20432;-70
2022/04/20 05:45:29;;;;;;;3.93;3.10;;;3.00;92.70;;;;;;4196170;28;20422;-70
2022/04/20 05:47:30;;;;;;;4.70;2.70;;;3.00;92.60;;;;;;4197328;28;20208;-70
2022/04/20 05:49:30;;;;;;;3.27;2.77;;;3.10;92.30;;;;;;4197027;28;20180;-69
2022/04/20 05:51:32;;;;;;;4.33;2.57;;;3.20;92.50;;;;;;4197192;28;20189;-70
2022/04/20 05:53:32;;;;;;;5.50;3.60;;;3.30;91.80;;;;;;4197144;28;20184;-69
2022/04/20 05:55:33;;;;;;;3.97;2.97;;;3.40;91.20;;;;;;4196406;28;20530;-70
2022/04/20 05:57:34;;;;;;;4.60;3.37;;;3.40;91.50;;;;;;4197247;28;20201;-69
2022/04/20 05:59:34;;;;;;;5.07;3.53;;;3.50;91.30;;;;;;4197142;28;20173;-70
2022/04/20 06:01:35;;;;;;;4.33;3.80;;;3.50;90.90;;;;;;4197072;28;20170;-70
2022/04/20 06:03:36;;;;;;;5.43;3.47;;;3.50;90.70;;;;;;4197088;28;20265;-70
2022/04/20 06:05:36;;;;;;;7.93;4.30;;;3.60;90.40;;;;;;4196185;28;20235;-70
2022/04/20 06:07:37;;;;;;;5.20;3.60;;;3.80;90.20;;;;;;4197109;28;20583;-70
2022/04/20 06:09:38;;;;;;;5.40;3.53;;;3.80;89.90;;;;;;4196897;28;20177;-70
2022/04/20 06:11:39;;;;;;;5.53;3.53;;;3.80;90.00;;;;;;4196641;28;20264;-70
2022/04/20 06:13:39;;;;;;;5.70;3.27;;;3.80;89.90;;;;;;4196912;28;20161;-70
2022/04/20 06:15:40;;;;;;;3.67;3.27;;;4.00;87.60;;;;;;4196015;28;20621;-70
2022/04/20 06:17:41;;;;;;;3.83;2.90;;;4.10;87.90;;;;;;4197086;28;20251;-70
2022/04/20 06:19:41;;;;;;;2.80;2.27;;;4.10;88.50;;;;;;4196690;28;20669;-69
2022/04/20 06:21:42;;;;;;;2.63;1.90;;;4.30;84.70;;;;;;4195378;28;20201;-70
2022/04/20 06:23:43;;;;;;;2.80;2.50;;;4.40;79.90;;;;;;4195195;28;20651;-70
2022/04/20 06:25:43;;;;;;;3.33;2.30;;;4.50;78.20;;;;;;4195956;28;20228;-70
2022/04/20 06:27:44;;;;;;;4.20;2.23;;;4.70;79.50;;;;;;4195200;28;20241;-70
2022/04/20 06:29:45;;;;;;;2.67;2.23;;;4.90;77.40;;;;;;4196596;28;20225;-70
2022/04/20 06:31:46;;;;;;;3.83;2.53;;;5.00;76.50;;;;;;4196602;28;20194;-70
2022/04/20 06:33:46;;;;;;;4.30;2.77;;;5.00;77.50;;;;;;4196541;28;20428;-70
2022/04/20 06:35:48;;;;;;;3.33;2.43;;;5.10;78.50;;;;;;4194315;28;20264;-70
2022/04/20 06:37:48;;;;;;;2.40;1.87;;;5.20;74.70;;;;;;4196561;28;20198;-70
2022/04/20 06:39:49;;;;;;;2.47;1.80;;;5.30;69.70;;;;;;4196406;28;20420;-70
2022/04/20 06:41:51;;;;;;;3.70;2.17;;;5.50;69.50;;;;;;4196348;28;20191;-70
2022/04/20 06:43:51;;;;;;;2.63;2.30;;;5.50;71.00;;;;;;4196350;28;20539;-70
2022/04/20 06:45:52;;;;;;;2.80;2.13;;;5.60;68.30;;;;;;4195715;28;20566;-70
2022/04/20 06:47:58;;;;;;;2.50;1.97;;;5.70;69.20;;;;;;4196258;28;20203;-70
2022/04/20 06:49:59;;;;;;;2.67;2.00;;;5.80;67.70;;;;;;4194851;28;20183;-70
2022/04/20 06:58:57;;;;;;;3.37;1.90;;;6.20;59.40;;;;;;4196375;28;20470;-70
2022/04/20 07:00:59;;;;;;;2.37;1.60;;;6.10;59.40;;;;;;4196065;28;20908;-70
2022/04/20 07:03:04;;;;;;;2.60;1.77;;;6.10;59.50;;;;;;4194779;28;20572;-69
2022/04/20 07:05:06;;;;;;;4.10;2.07;;;6.30;58.70;;;;;;4195645;28;20410;-70
2022/04/20 07:07:06;;;;;;;3.00;1.97;;;6.30;57.80;;;;;;4195631;28;20482;-70
2022/04/20 07:09:07;;;;;;;2.00;1.60;;;6.30;64.10;;;;;;4196246;28;20418;-70
2022/04/20 07:11:08;;;;;;;2.17;1.73;;;6.20;62.20;;;;;;4194640;28;20787;-70
2022/04/20 07:13:08;;;;;;;2.27;1.53;;;6.10;58.70;;;;;;4181402;28;20207;-70
2022/04/20 07:15:09;;;;;;;2.63;1.80;;;6.40;57.20;;;;;;4178930;28;20239;-70
2022/04/20 07:17:10;;;;;;;2.20;1.90;;;6.60;55.30;;;;;;4177555;28;20751;-70
2022/04/20 07:19:10;;;;;;;2.00;1.67;;;6.40;54.20;;;;;;4179014;28;20192;-70
2022/04/20 07:21:11;;;;;;;3.30;1.60;;;6.70;54.50;;;;;;4179124;28;20185;-70
2022/04/20 07:23:12;;;;;;;4.67;1.53;;;6.70;56.00;;;;;;4179215;28;20216;-70
2022/04/20 07:25:17;;;;;;;2.23;1.70;;;6.80;54.10;;;;;;4177698;28;20187;-70
2022/04/20 07:27:18;;;;;;;2.47;1.70;;;6.90;53.00;;;;;;4176911;28;20562;-69
2022/04/20 07:29:18;;;;;;;4.13;2.40;;;6.90;53.20;;;;;;4178848;28;20438;-70
2022/04/20 07:31:19;;;;;;;3.47;2.33;;;6.80;53.40;;;;;;4179025;28;20477;-70
2022/04/20 07:33:20;;;;;;;5.47;2.50;;;6.90;55.60;;;;;;4177741;28;20176;-70
2022/04/20 07:35:21;;;;;;;4.97;2.90;;;7.10;54.30;;;;;;4178579;28;20217;-69
2022/04/20 07:37:21;;;;;;;12.90;6.40;;;7.20;55.60;;;;;;4177800;28;20280;-69
2022/04/20 07:39:22;;;;;;;8.93;4.10;;;7.20;52.00;;;;;;4179026;28;20277;-69
2022/04/20 07:41:23;;;;;;;2.10;1.67;;;7.40;54.00;;;;;;4179008;28;20176;-69
2022/04/20 07:43:23;;;;;;;2.07;1.73;;;7.30;53.70;;;;;;4178952;28;20207;-69
2022/04/20 07:45:27;;;;;;;2.30;1.57;;;7.30;53.10;;;;;;4178228;28;20184;-69
2022/04/20 07:47:28;;;;;;;2.97;1.60;;;7.60;52.70;;;;;;4186462;28;20635;-69
2022/04/20 07:51:48;;;;;;;4.27;2.40;;;7.90;49.20;;;;;;4195218;28;20233;-69
2022/04/20 07:53:49;;;;;;;1.93;1.70;;;8.00;49.00;;;;;;4195154;28;20418;-69
2022/04/20 07:55:49;;;;;;;13.20;1.97;;;8.00;48.70;;;;;;4194614;28;20904;-69
2022/04/20 07:57:54;;;;;;;1.80;1.40;;;7.90;47.90;;;;;;4195077;28;20538;-69
2022/04/20 07:59:55;;;;;;;4.30;1.83;;;7.90;49.50;;;;;;4195141;28;20187;-69
2022/04/20 08:01:56;;;;;;;2.27;1.50;;;8.00;49.30;;;;;;4195237;28;20426;-67
2022/04/20 08:03:58;;;;;;;2.50;1.67;;;8.20;48.60;;;;;;4195256;28;20179;-68
2022/04/20 08:05:59;;;;;;;2.17;1.70;;;8.20;48.50;;;;;;4194431;28;20419;-68
2022/04/20 08:07:59;;;;;;;3.73;2.30;;;8.20;51.70;;;;;;4195325;28;21223;-67
2022/04/20 08:10:02;;;;;;;3.73;1.93;;;8.50;49.80;;;;;;4195029;28;20429;-67
2022/04/20 08:12:03;;;;;;;2.23;1.70;;;8.70;50.30;;;;;;4195011;28;20276;-67
2022/04/20 08:14:10;;;;;;;2.60;2.03;;;8.70;47.90;;;;;;4194984;28;20533;-67
2022/04/20 08:16:11;;;;;;;3.40;2.23;;;8.80;47.40;;;;;;4194256;28;20427;-67
2022/04/20 08:18:12;;;;;;;3.83;1.83;;;8.80;46.90;;;;;;4194543;28;20434;-67
2022/04/20 08:20:13;;;;;;;3.23;1.90;;;8.90;49.90;;;;;;4194997;28;20221;-67
2022/04/20 08:22:14;;;;;;;2.40;1.77;;;9.00;47.40;;;;;;4194646;28;20222;-68
2022/04/20 08:24:15;;;;;;;2.10;1.83;;;8.90;46.90;;;;;;4194957;28;20522;-68
2022/04/20 08:26:15;;;;;;;2.47;2.07;;;8.70;48.80;;;;;;4194213;28;20187;-68
2022/04/20 08:28:16;;;;;;;3.27;1.60;;;8.90;48.00;;;;;;4194726;28;20319;-68
2022/04/20 08:30:17;;;;;;;2.57;1.90;;;8.90;47.00;;;;;;4194899;28;20210;-68
2022/04/20 08:32:18;;;;;;;2.13;1.80;;;9.10;47.20;;;;;;4194743;28;20179;-67
2022/04/20 08:34:19;;;;;;;2.70;1.80;;;9.20;45.80;;;;;;4194828;28;20214;-68
2022/04/20 08:36:20;;;;;;;3.00;1.87;;;9.40;47.00;;;;;;4194216;28;20178;-68
2022/04/20 08:38:20;;;;;;;5.73;2.20;;;9.60;47.40;;;;;;4194981;28;20767;-67
2022/04/20 08:40:21;;;;;;;2.30;2.00;;;9.40;47.70;;;;;;4198016;28;20221;-68
2022/04/20 08:42:22;;;;;;;2.90;1.90;;;9.40;47.00;;;;;;4198416;28;20175;-68
2022/04/20 08:44:27;;;;;;;2.47;1.80;;;9.50;48.60;;;;;;4198598;28;21021;-68
2022/04/20 08:46:34;;;;;;;2.50;1.77;;;9.70;46.80;;;;;;4196560;28;20179;-67
2022/04/20 08:48:35;;;;;;;2.03;1.63;;;9.50;47.10;;;;;;4196770;28;20207;-68
2022/04/20 08:50:36;;;;;;;2.90;1.90;;;9.30;47.50;;;;;;4198255;28;20286;-67
2022/04/20 08:52:37;;;;;;;2.90;2.03;;;9.50;47.20;;;;;;4198149;28;20183;-68
2022/04/20 08:54:39;;;;;;;2.63;2.40;;;9.60;47.80;;;;;;4197790;28;20301;-67
2022/04/20 08:59:02;;;;;;;2.80;1.90;;;9.80;49.10;;;;;;4196918;28;20214;-67
2022/04/20 09:01:04;;;;;;;2.20;1.70;;;10.10;49.20;;;;;;4197067;28;20188;-67
2022/04/20 09:03:05;;;;;;;2.53;1.90;;;9.90;47.00;;;;;;4199564;28;20186;-68
2022/04/20 09:05:07;;;;;;;3.67;1.60;;;10.00;48.10;;;;;;4200233;28;20286;-67
2022/04/20 09:07:12;;;;;;;2.27;1.70;;;10.00;45.60;;;;;;4198605;28;20666;-67
2022/04/20 09:09:14;;;;;;;2.40;1.50;;;10.10;49.20;;;;;;4200472;28;20734;-68
2022/04/20 09:11:15;;;;;;;2.00;1.60;;;10.20;45.40;;;;;;4199890;28;20203;-67
2022/04/20 09:13:15;;;;;;;3.53;2.10;;;10.50;44.60;;;;;;4200378;28;20296;-67
2022/04/20 09:15:31;;;;;;;3.90;2.27;;;10.30;47.10;;;;;;4198306;28;20207;-67
2022/04/20 09:17:47;;;;;;;2.07;1.70;;;10.70;49.80;;;;;;4197801;28;20686;-68
2022/04/20 09:19:53;;;;;;;2.40;1.90;;;10.90;46.20;;;;;;4183270;28;20199;-67
2022/04/20 09:21:55;;;;;;;3.90;1.67;;;11.00;46.90;;;;;;4198974;28;20241;-67
2022/04/20 09:24:09;;;;;;;3.43;1.77;;;10.90;46.00;;;;;;4199443;28;20214;-67
2022/04/20 09:26:19;;;;;;;2.50;1.70;;;10.90;43.40;;;;;;4183208;28;20191;-67
2022/04/20 09:28:21;;;;;;;3.70;2.00;;;11.30;46.80;;;;;;4198173;28;20451;-67
2022/04/20 09:30:21;;;;;;;3.93;1.70;;;10.90;43.90;;;;;;4180887;28;20180;-68
2022/04/20 09:32:40;;;;;;;2.53;1.80;;;11.10;46.00;;;;;;4180743;28;20318;-67
2022/04/20 09:35:14;;;;;;;2.60;1.80;;;11.30;43.30;;;;;;4179559;28;20215;-68
2022/04/20 09:37:14;;;;;;;3.33;1.87;;;11.50;43.50;;;;;;4179299;28;20203;-67
2022/04/20 09:39:15;;;;;;;3.07;2.00;;;11.60;42.40;;;;;;4179752;28;20180;-67
2022/04/20 09:41:16;;;;;;;2.33;1.73;;;11.60;43.10;;;;;;4180732;28;20184;-67
2022/04/20 09:43:19;;;;;;;3.57;1.67;;;11.80;42.70;;;;;;4180537;28;20643;-67
2022/04/20 09:45:20;;;;;;;2.67;1.80;;;11.60;42.30;;;;;;4178598;28;20200;-68
2022/04/20 09:50:01;;;;;;;2.37;1.73;;;12.30;42.40;;;;;;4196190;28;20539;-68
2022/04/20 09:52:12;;;;;;;3.60;2.00;;;12.20;41.70;;;;;;4196372;28;20262;-68
2022/04/20 09:54:27;;;;;;;1.73;1.63;;;12.60;41.20;;;;;;4196958;28;20979;-67
2022/04/20 09:56:28;;;;;;;2.80;1.60;;;12.60;40.20;;;;;;4196508;28;20175;-68
2022/04/20 09:58:28;;;;;;;2.87;1.70;;;12.80;40.60;;;;;;4197511;28;20203;-67
2022/04/20 10:00:39;;;;;;;3.50;1.87;;;13.00;39.60;;;;;;4196981;28;20176;-67
2022/04/20 10:02:53;;;;;;;1.90;1.70;;;13.40;40.50;;;;;;4197205;28;20176;-66
2022/04/20 10:04:55;;;;;;;2.47;2.20;;;13.60;38.70;;;;;;4195604;28;20171;-67
2022/04/20 10:06:56;;;;;;;2.77;2.00;;;13.60;37.20;;;;;;4196603;28;20184;-67
2022/04/20 10:08:57;;;;;;;2.27;1.70;;;13.30;39.00;;;;;;4197125;28;20196;-67
2022/04/20 10:10:58;;;;;;;2.90;2.10;;;13.50;40.10;;;;;;4179089;28;20180;-67
2022/04/20 10:13:02;;;;;;;2.50;1.80;;;13.90;38.10;;;;;;4197042;28;20187;-67
2022/04/20 10:17:26;;;;;;;2.03;1.80;;;13.60;37.30;;;;;;4195820;28;20738;-68
2022/04/20 10:19:28;;;;;;;2.57;1.70;;;14.10;37.40;;;;;;4196923;28;20187;-67
2022/04/20 10:21:31;;;;;;;2.53;2.00;;;13.50;36.60;;;;;;4195614;28;20176;-67
2022/04/20 10:23:34;;;;;;;3.07;1.90;;;13.80;38.30;;;;;;4196961;28;20179;-68
2022/04/20 10:25:35;;;;;;;3.40;2.17;;;15.10;35.80;;;;;;4196360;28;20211;-68
2022/04/20 10:28:28;;;;;;;2.80;2.50;;;15.60;34.20;;;;;;4195371;28;20223;-68
2022/04/20 10:30:42;;;;;;;3.17;2.10;;;14.50;36.70;;;;;;4195521;28;20258;-68
2022/04/20 10:33:13;;;;;;;3.07;2.33;;;15.50;38.80;;;;;;4195245;28;20205;-68
2022/04/20 10:35:14;;;;;;;2.87;2.10;;;16.00;36.80;;;;;;4193940;28;20230;-68
2022/04/20 10:37:21;;;;;;;2.97;2.07;;;16.90;32.40;;;;;;4195937;28;20670;-68
2022/04/20 10:39:24;;;;;;;2.43;2.23;;;16.80;31.50;;;;;;4196263;28;20263;-68
2022/04/20 10:41:24;;;;;;;2.90;2.43;;;16.50;33.80;;;;;;4195218;28;20611;-68
2022/04/20 10:43:27;;;;;;;2.30;2.10;;;16.60;32.70;;;;;;4196145;28;20216;-68
2022/04/20 10:45:34;;;;;;;2.23;2.03;;;17.50;32.30;;;;;;4194405;28;20610;-68
2022/04/20 10:47:44;;;;;;;2.93;2.30;;;18.70;29.90;;;;;;4196292;28;20876;-68
2022/04/20 10:49:44;;;;;;;2.93;2.33;;;18.40;29.20;;;;;;4196404;28;20255;-68
2022/04/20 10:51:46;;;;;;;3.23;2.70;;;18.20;31.80;;;;;;4196184;28;20702;-68
2022/04/20 10:53:49;;;;;;;4.03;2.57;;;17.20;29.40;;;;;;4196208;28;20754;-68
2022/04/20 10:55:51;;;;;;;3.33;2.47;;;17.70;30.00;;;;;;4195380;28;20243;-68
2022/04/20 10:57:55;;;;;;;2.13;1.93;;;17.10;32.40;;;;;;4194944;28;20637;-68
2022/04/20 11:00:19;;;;;;;2.73;2.30;;;17.60;32.30;;;;;;4195920;28;20199;-68
2022/04/20 11:02:26;;;;;;;2.80;2.50;;;16.40;30.60;;;;;;4195339;28;20176;-68
2022/04/20 11:04:39;;;;;;;2.97;2.50;;;17.30;31.60;;;;;;4194722;28;20151;-68
2022/04/20 11:07:08;;;;;;;3.30;2.50;;;17.80;30.90;;;;;;4195407;28;20176;-68
2022/04/20 11:09:47;;;;;;;3.33;2.37;;;17.90;29.90;;;;;;4195993;28;20668;-68
2022/04/20 11:19:33;;;;;;;2.60;2.33;;;19.60;28.60;;;;;;4195663;28;20283;-67
2022/04/20 11:21:35;;;;;;;3.43;2.30;;;20.70;28.50;;;;;;4193769;28;20218;-67
2022/04/20 11:24:05;;;;;;;2.43;2.23;;;21.10;26.40;;;;;;4179443;28;20184;-67